Time;durP1;ratioP1;P1;durP2;ratioP2;P2;SDS_P1;SDS_P2;PMS_P1;PMS_P2;Temp;Humidity;BMP_temperature;BMP_pressure;BME280_temperature;BME280_humidity;BME280_pressure;Samples;Min_cycle;Max_cycle;Signal;HPM_P1;HPM_P2
2022/09/11 00:01:02;;;;;;;0.60;0.40;;;;;;;11.85;81.75;98152.20;104944;1271;75127;-22
2022/09/11 00:03:30;;;;;;;1.50;0.50;;;;;;;11.67;82.20;98153.66;104970;1272;74961;-22
2022/09/11 00:06:05;;;;;;;0.30;0.30;;;;;;;11.91;81.80;98158.41;105027;1271;61157;-22
2022/09/11 00:08:32;;;;;;;0.20;0.20;;;;;;;12.26;80.65;98167.93;104779;1274;61282;-24
2022/09/11 00:11:10;;;;;;;2.80;0.30;;;;;;;12.21;80.69;98168.26;104875;1271;75488;-24
2022/09/11 00:13:38;;;;;;;1.30;0.30;;;;;;;11.99;81.54;98169.94;104766;1274;75000;-25
2022/09/11 00:16:16;;;;;;;2.10;0.30;;;;;;;11.77;82.53;98169.68;104737;1274;74452;-24
2022/09/11 00:18:43;;;;;;;0.40;0.40;;;;;;;11.95;82.64;98169.17;104686;1274;61174;-23
2022/09/11 00:21:10;;;;;;;0.80;0.80;;;;;;;12.13;81.35;98167.17;104767;1271;61740;-24
2022/09/11 00:23:37;;;;;;;0.40;0.30;;;;;;;12.10;81.33;98166.42;105050;1271;75614;-24
2022/09/11 00:26:05;;;;;;;0.40;0.40;;;;;;;11.84;81.67;98165.19;105086;1271;75930;-24
2022/09/11 00:28:33;;;;;;;0.40;0.40;;;;;;;11.65;82.08;98165.35;105177;1271;74392;-24
2022/09/11 00:31:02;;;;;;;0.40;0.40;;;;;;;11.82;82.17;98165.44;104960;1271;62167;-23
2022/09/11 00:33:29;;;;;;;0.20;0.20;;;;;;;12.05;81.04;98169.66;104884;1272;61815;-24
2022/09/11 00:35:59;;;;;;;0.20;0.20;;;;;;;11.98;81.01;98165.55;105052;1272;75537;-24
2022/09/11 00:38:27;;;;;;;0.30;0.30;;;;;;;11.80;81.53;98168.02;104719;1272;74328;-24
2022/09/11 00:40:58;;;;;;;4.40;0.40;;;;;;;11.61;81.87;98170.70;104754;1270;74164;-24
2022/09/11 00:43:26;;;;;;;1.50;0.40;;;;;;;11.65;82.23;98169.65;104692;1271;62685;-24
2022/09/11 00:45:58;;;;;;;0.30;0.30;;;;;;;12.06;80.87;98164.86;104754;1271;61783;-24
2022/09/11 00:48:28;;;;;;;0.70;0.20;;;;;;;12.08;80.15;98165.23;104644;1272;75465;-24
2022/09/11 00:50:55;;;;;;;0.30;0.20;;;;;;;11.85;81.00;98168.39;104783;1272;75951;-24
2022/09/11 00:53:23;;;;;;;1.90;0.40;;;;;;;11.63;81.46;98166.60;104657;1272;74476;-24
2022/09/11 00:55:54;;;;;;;0.40;0.30;;;;;;;11.53;82.36;98171.23;104693;1274;63441;-24
2022/09/11 00:58:23;;;;;;;1.70;0.30;;;;;;;11.97;80.94;98173.61;104868;1272;62056;-24
2022/09/11 01:00:51;;;;;;;0.40;0.40;;;;;;;12.10;80.15;98176.14;104714;1271;74646;-24
2022/09/11 01:03:18;;;;;;;4.20;0.50;;;;;;;12.05;80.14;98181.88;104668;1272;75804;-24
2022/09/11 01:05:47;;;;;;;0.80;0.40;;;;;;;11.81;80.42;98179.77;104761;1274;72253;-24
2022/09/11 01:08:14;;;;;;;3.40;0.40;;;;;;;11.60;81.27;98182.72;104772;1272;63553;-23
2022/09/11 01:10:52;;;;;;;0.30;0.30;;;;;;;11.78;81.07;98182.14;104802;1271;61038;-24
2022/09/11 01:13:44;;;;;;;0.70;0.30;;;;;;;12.09;79.60;98180.86;104659;1274;74552;-24
2022/09/11 01:16:28;;;;;;;1.10;0.40;;;;;;;11.96;79.44;98183.43;104878;1272;75845;-24
2022/09/11 01:19:05;;;;;;;0.40;0.40;;;;;;;11.67;80.09;98187.20;105161;1271;72662;-23
2022/09/11 01:21:46;;;;;;;0.30;0.30;;;;;;;11.46;80.79;98190.52;104967;1272;63622;-24
2022/09/11 01:24:53;;;;;;;0.40;0.40;;;;;;;11.84;79.78;98190.16;104916;1271;60979;-24
2022/09/11 01:27:49;;;;;;;0.40;0.40;;;;;;;11.99;78.77;98187.86;104866;1271;76135;-24
2022/09/11 01:30:23;;;;;;;0.70;0.40;;;;;;;11.68;78.95;98176.81;104990;1272;75044;-24
2022/09/11 01:33:05;;;;;;;0.40;0.40;;;;;;;11.34;80.78;98184.70;104668;1274;74173;-23
2022/09/11 01:35:39;;;;;;;0.30;0.30;;;;;;;11.34;80.85;98185.75;104601;1272;61156;-24
2022/09/11 01:38:16;;;;;;;0.40;0.40;;;;;;;11.70;79.46;98195.98;104833;1271;62124;-24
2022/09/11 01:40:50;;;;;;;3.50;0.50;;;;;;;11.74;78.94;98201.42;105120;1271;75321;-23
2022/09/11 01:43:29;;;;;;;0.30;0.30;;;;;;;11.54;79.74;98201.02;105010;1271;75996;-24
2022/09/11 01:45:58;;;;;;;0.30;0.30;;;;;;;11.37;80.11;98201.30;105132;1272;73004;-23
2022/09/11 01:48:28;;;;;;;0.30;0.30;;;;;;;11.41;79.82;98206.60;104832;1272;62239;-23
2022/09/11 01:50:55;;;;;;;0.40;0.40;;;;;;;11.72;78.84;98214.02;104808;1272;61987;-24
2022/09/11 01:53:25;;;;;;;0.40;0.40;;;;;;;11.75;78.66;98212.31;104758;1271;75416;-24
2022/09/11 01:55:56;;;;;;;0.40;0.40;;;;;;;11.69;78.81;98214.70;104800;1271;75068;-23
2022/09/11 01:58:28;;;;;;;0.80;0.60;;;;;;;11.52;79.50;98215.95;104652;1271;73447;-23
2022/09/11 02:01:01;;;;;;;0.30;0.30;;;;;;;11.38;80.25;98217.64;104665;1272;62997;-23
2022/09/11 02:04:04;;;;;;;1.00;0.50;;;;;;;11.79;79.55;98214.91;104700;1272;61138;-23
2022/09/11 02:06:54;;;;;;;3.40;0.50;;;;;;;12.03;78.21;98210.77;104798;1271;75617;-24
2022/09/11 02:09:25;;;;;;;0.40;0.40;;;;;;;11.66;79.09;98211.11;104911;1274;75978;-23
2022/09/11 02:11:53;;;;;;;0.50;0.50;;;;;;;11.46;80.18;98209.27;104955;1272;73407;-24
2022/09/11 02:14:28;;;;;;;2.30;0.50;;;;;;;11.22;81.05;98205.47;104726;1272;62352;-23
2022/09/11 02:17:04;;;;;;;4.50;0.50;;;;;;;11.70;79.87;98204.10;104684;1272;61158;-23
2022/09/11 02:19:32;;;;;;;0.50;0.50;;;;;;;11.83;79.00;98200.60;104701;1272;75684;-24
2022/09/11 02:21:59;;;;;;;0.50;0.50;;;;;;;11.59;79.39;98193.41;104900;1272;75945;-24
2022/09/11 02:24:26;;;;;;;0.50;0.50;;;;;;;11.54;79.44;98198.78;104795;1272;74673;-24
2022/09/11 02:26:57;;;;;;;0.60;0.50;;;;;;;11.47;80.29;98197.36;104674;1274;62582;-24
2022/09/11 02:29:25;;;;;;;1.40;0.70;;;;;;;11.92;79.52;98193.93;104727;1272;61307;-24
2022/09/11 02:31:53;;;;;;;0.70;0.70;;;;;;;12.09;78.48;98194.86;104797;1271;75532;-24
2022/09/11 02:34:28;;;;;;;1.10;0.70;;;;;;;11.99;78.45;98197.96;104798;1273;76351;-24
2022/09/11 02:37:13;;;;;;;1.40;0.90;;;;;;;11.74;79.74;98192.04;104697;1274;74351;-24
2022/09/11 02:40:23;;;;;;;4.80;0.80;;;;;;;11.59;79.80;98191.61;104996;1272;62181;-24
2022/09/11 02:43:41;;;;;;;0.80;0.60;;;;;;;11.53;80.98;98192.09;105278;1269;61038;-24
2022/09/11 02:46:24;;;;;;;2.20;0.80;;;;;;;12.17;79.47;98189.02;104911;1271;75820;-24
2022/09/11 02:49:14;;;;;;;1.20;0.90;;;;;;;12.20;78.71;98189.95;105010;1271;74990;-24
2022/09/11 02:52:19;;;;;;;1.50;1.00;;;;;;;11.99;79.13;98195.94;104927;1269;74453;-24
2022/09/11 02:54:58;;;;;;;2.20;0.80;;;;;;;11.56;80.74;98199.22;104968;1271;61108;-24
2022/09/11 02:57:34;;;;;;;0.50;0.50;;;;;;;11.51;81.29;98193.13;104953;1271;61089;-24
2022/09/11 03:00:06;;;;;;;3.90;1.00;;;;;;;12.02;79.88;98190.32;105064;1269;75518;-24
2022/09/11 03:02:37;;;;;;;1.20;1.10;;;;;;;12.08;79.42;98192.20;105125;1271;75196;-24
2022/09/11 03:05:05;;;;;;;1.60;0.80;;;;;;;12.02;79.61;98196.81;104824;1272;73325;-24
2022/09/11 03:07:33;;;;;;;2.10;1.10;;;;;;;11.85;79.68;98197.70;104794;1271;61941;-24
2022/09/11 03:10:00;;;;;;;0.90;0.50;;;;;;;11.69;80.48;98196.89;104894;1271;61132;-24
2022/09/11 03:12:27;;;;;;;0.60;0.60;;;;;;;12.08;79.99;98193.59;104949;1269;75541;-24
2022/09/11 03:14:56;;;;;;;1.30;0.80;;;;;;;12.45;78.52;98187.79;105018;1271;75942;-24
2022/09/11 03:17:24;;;;;;;4.00;1.20;;;;;;;12.43;78.20;98187.95;105025;1271;74162;-24
2022/09/11 03:19:51;;;;;;;3.10;1.10;;;;;;;12.24;78.82;98186.55;104846;1269;61131;-25
2022/09/11 03:22:18;;;;;;;1.40;1.10;;;;;;;11.99;79.65;98189.58;105215;1269;62347;-24
2022/09/11 03:24:46;;;;;;;4.90;0.60;;;;;;;11.81;80.16;98184.63;104994;1268;74530;-24
2022/09/11 03:27:13;;;;;;;1.70;0.80;;;;;;;12.16;79.83;98185.25;105042;1268;76218;-24
2022/09/11 03:29:40;;;;;;;2.20;0.90;;;;;;;12.57;78.48;98181.70;104944;1268;74313;-24
2022/09/11 03:32:08;;;;;;;1.30;0.90;;;;;;;12.50;78.35;98182.88;105264;1269;62132;-25
2022/09/11 03:34:37;;;;;;;2.00;1.10;;;;;;;12.33;78.64;98181.52;105164;1269;61115;-25
2022/09/11 03:37:04;;;;;;;2.40;1.40;;;;;;;12.12;79.16;98184.70;105214;1268;75294;-25
2022/09/11 03:39:31;;;;;;;1.10;1.00;;;;;;;11.90;79.84;98185.93;105057;1271;75952;-25
2022/09/11 03:41:59;;;;;;;2.30;0.80;;;;;;;11.78;80.79;98188.41;104957;1271;74267;-25
2022/09/11 03:44:27;;;;;;;1.90;0.90;;;;;;;12.26;79.85;98187.76;104977;1269;61153;-25
2022/09/11 03:46:56;;;;;;;1.20;1.00;;;;;;;12.54;77.92;98193.80;104931;1270;61178;-25
2022/09/11 03:49:23;;;;;;;1.80;1.00;;;;;;;12.46;78.09;98191.31;104998;1271;75727;-25
2022/09/11 03:51:51;;;;;;;1.70;1.10;;;;;;;12.28;78.78;98187.38;104980;1271;77738;-25
2022/09/11 03:54:19;;;;;;;1.30;0.90;;;;;;;12.06;79.45;98194.52;104986;1272;74557;-25
2022/09/11 03:56:46;;;;;;;2.00;0.70;;;;;;;11.88;80.11;98194.66;104967;1271;62564;-25
2022/09/11 03:59:15;;;;;;;1.50;0.90;;;;;;;12.14;80.27;98198.75;104958;1271;61410;-25
2022/09/11 04:01:43;;;;;;;1.40;1.00;;;;;;;12.43;78.77;98202.20;104932;1271;74443;-25
2022/09/11 04:04:11;;;;;;;5.60;1.50;;;;;;;12.43;78.73;98201.36;104821;1274;74962;-25
2022/09/11 04:06:40;;;;;;;2.00;1.60;;;;;;;12.19;79.36;98205.14;104934;1269;74221;-25
2022/09/11 04:09:07;;;;;;;1.70;1.30;;;;;;;11.83;80.63;98204.52;104987;1268;61074;-25
2022/09/11 04:11:37;;;;;;;1.90;0.80;;;;;;;11.76;81.36;98206.68;105029;1268;61151;-25
2022/09/11 04:14:06;;;;;;;0.70;0.70;;;;;;;12.09;80.84;98201.84;104949;1271;73402;-25
2022/09/11 04:16:36;;;;;;;1.90;1.20;;;;;;;12.53;79.44;98196.14;105008;1269;73755;-25
2022/09/11 04:19:03;;;;;;;1.30;1.10;;;;;;;12.57;78.67;98193.90;104786;1271;74333;-25
2022/09/11 04:21:33;;;;;;;1.60;1.10;;;;;;;12.36;79.03;98193.41;105000;1268;61103;-25
2022/09/11 04:24:00;;;;;;;3.90;1.60;;;;;;;12.07;80.01;98188.29;104955;1268;61465;-25
2022/09/11 04:26:29;;;;;;;3.60;0.80;;;;;;;11.90;80.50;98189.23;104934;1271;75491;-25
2022/09/11 04:29:16;;;;;;;1.70;1.30;;;;;;;12.33;80.23;98185.88;104801;1271;75345;-25
2022/09/11 04:31:45;;;;;;;1.90;1.60;;;;;;;12.71;78.98;98183.91;105044;1269;73493;-26
2022/09/11 04:34:12;;;;;;;2.20;1.70;;;;;;;12.66;78.71;98185.80;104833;1271;62504;-25
2022/09/11 04:36:40;;;;;;;2.40;1.50;;;;;;;12.46;78.80;98183.14;104925;1269;61149;-25
2022/09/11 04:39:10;;;;;;;2.60;2.00;;;;;;;12.15;80.14;98180.75;104943;1268;75302;-25
2022/09/11 04:41:37;;;;;;;2.20;1.50;;;;;;;11.81;81.79;98173.27;105020;1268;76015;-25
2022/09/11 04:44:04;;;;;;;1.70;1.20;;;;;;;12.05;81.52;98178.27;104968;1269;75719;-25
2022/09/11 04:46:37;;;;;;;2.00;1.60;;;;;;;12.21;80.61;98175.38;104984;1268;61170;-25
2022/09/11 04:49:07;;;;;;;2.30;1.70;;;;;;;12.04;80.95;98173.10;105308;1268;60978;-25
2022/09/11 04:51:35;;;;;;;2.50;1.80;;;;;;;11.96;81.25;98174.57;104960;1271;75506;-25
2022/09/11 04:54:03;;;;;;;2.40;1.20;;;;;;;11.82;81.54;98174.11;104969;1269;76497;-25
2022/09/11 04:56:36;;;;;;;2.50;1.30;;;;;;;11.91;82.04;98172.27;105032;1271;72471;-25
2022/09/11 04:59:21;;;;;;;2.90;1.90;;;;;;;12.42;80.38;98171.83;104811;1273;61243;-25
2022/09/11 05:01:53;;;;;;;2.10;1.90;;;;;;;12.48;79.65;98175.95;104827;1269;61033;-25
2022/09/11 05:04:20;;;;;;;2.40;1.70;;;;;;;12.48;79.86;98171.64;104856;1271;75330;-25
2022/09/11 05:06:53;;;;;;;3.50;1.20;;;;;;;12.34;80.01;98174.27;104959;1271;75265;-25
2022/09/11 05:09:20;;;;;;;4.50;1.50;;;;;;;12.36;80.74;98171.92;104955;1268;74660;-25
2022/09/11 05:11:49;;;;;;;2.20;1.80;;;;;;;12.78;78.86;98170.12;104929;1268;61134;-25
2022/09/11 05:14:17;;;;;;;2.80;2.30;;;;;;;12.87;78.58;98170.23;104917;1271;61229;-25
2022/09/11 05:16:45;;;;;;;3.30;2.20;;;;;;;12.85;78.82;98174.36;105009;1268;75412;-25
2022/09/11 05:19:14;;;;;;;2.80;1.90;;;;;;;12.67;79.44;98171.56;104986;1268;75966;-25
2022/09/11 05:21:42;;;;;;;2.10;1.80;;;;;;;12.74;79.89;98174.19;104880;1271;74300;-25
2022/09/11 05:24:10;;;;;;;3.60;2.20;;;;;;;13.12;78.27;98171.23;104887;1271;61248;-25
2022/09/11 05:26:37;;;;;;;3.80;2.00;;;;;;;13.32;77.49;98173.38;104899;1271;61137;-25
2022/09/11 05:29:08;;;;;;;4.30;1.90;;;;;;;13.30;77.49;98170.89;105007;1268;75501;-25
2022/09/11 05:31:39;;;;;;;2.60;2.40;;;;;;;13.24;78.06;98175.02;104983;1271;74964;-25
2022/09/11 05:34:07;;;;;;;4.70;1.40;;;;;;;13.22;78.10;98173.64;104958;1271;74443;-25
2022/09/11 05:36:34;;;;;;;2.80;2.00;;;;;;;13.41;78.07;98174.29;105271;1271;62070;-24
2022/09/11 05:39:02;;;;;;;3.30;2.40;;;;;;;13.86;75.83;98173.16;105247;1268;60992;-25
2022/09/11 05:41:32;;;;;;;4.00;2.20;;;;;;;14.09;75.46;98176.98;105071;1268;74846;-27
2022/09/11 05:43:59;;;;;;;2.90;2.60;;;;;;;13.86;75.24;98179.48;104946;1268;76018;-27
2022/09/11 05:46:26;;;;;;;2.20;2.00;;;;;;;13.49;76.72;98178.55;104972;1268;74377;-25
2022/09/11 05:48:58;;;;;;;2.90;1.80;;;;;;;13.23;77.78;98176.06;104958;1268;61143;-25
2022/09/11 05:51:25;;;;;;;2.90;2.10;;;;;;;13.29;78.47;98171.74;105217;1268;62003;-25
2022/09/11 05:53:53;;;;;;;2.90;2.50;;;;;;;13.60;76.60;98175.09;105274;1271;75583;-26
2022/09/11 05:56:21;;;;;;;6.00;2.40;;;;;;;13.62;76.90;98170.53;104928;1268;75991;-23
2022/09/11 05:58:52;;;;;;;2.40;2.20;;;;;;;13.55;76.53;98167.63;104839;1272;74313;-24
2022/09/11 06:01:22;;;;;;;3.00;2.20;;;;;;;13.35;77.17;98165.33;104964;1271;61121;-23
2022/09/11 06:03:53;;;;;;;2.30;1.70;;;;;;;13.25;77.95;98158.90;104764;1269;61281;-24
2022/09/11 06:06:21;;;;;;;4.40;2.00;;;;;;;13.48;77.75;98162.20;104809;1271;75832;-24
2022/09/11 06:08:50;;;;;;;2.90;2.30;;;;;;;13.95;75.69;98160.63;104982;1271;75718;-24
2022/09/11 06:11:18;;;;;;;4.50;2.60;;;;;;;14.08;74.52;98159.27;104954;1271;73390;-24
2022/09/11 06:13:46;;;;;;;2.40;1.80;;;;;;;13.76;74.99;98155.04;104864;1268;61009;-24
2022/09/11 06:16:15;;;;;;;3.60;2.00;;;;;;;13.51;75.89;98156.66;104968;1269;61137;-23
2022/09/11 06:18:47;;;;;;;2.60;1.60;;;;;;;13.46;77.56;98157.05;104785;1271;75509;-25
2022/09/11 06:21:18;;;;;;;1.50;1.40;;;;;;;14.04;76.11;98157.98;104994;1268;75920;-26
2022/09/11 06:24:09;;;;;;;2.80;1.80;;;;;;;14.27;74.42;98154.08;104864;1268;74533;-25
2022/09/11 06:26:36;;;;;;;2.40;2.00;;;;;;;14.28;74.70;98157.27;104020;1268;1514765;-25
2022/09/11 06:29:03;;;;;;;3.00;2.30;;;;;;;14.19;75.03;98157.22;105120;1271;61098;-25
2022/09/11 06:31:32;;;;;;;3.80;2.70;;;;;;;14.38;75.35;98163.48;105176;1271;75683;-26
2022/09/11 06:33:59;;;;;;;3.10;2.40;;;;;;;14.52;74.48;98158.50;105367;1268;75898;-25
2022/09/11 06:36:26;;;;;;;3.70;2.80;;;;;;;15.02;72.39;98160.88;104950;1268;73269;-25
2022/09/11 06:38:56;;;;;;;3.60;2.90;;;;;;;15.32;71.14;98156.92;105435;1268;62199;-24
2022/09/11 06:41:25;;;;;;;2.80;2.10;;;;;;;15.26;70.71;98151.52;105044;1274;61628;-25
2022/09/11 06:43:55;;;;;;;3.50;3.10;;;;;;;14.96;71.88;98154.29;105005;1274;74605;-26
2022/09/11 06:46:24;;;;;;;3.70;3.10;;;;;;;14.84;71.50;98147.77;105134;1268;76074;-25
2022/09/11 06:48:54;;;;;;;4.60;3.30;;;;;;;14.54;71.73;98148.40;105127;1268;72910;-24
2022/09/11 06:51:24;;;;;;;3.20;2.20;;;;;;;14.68;71.99;98152.29;104996;1268;61033;-24
2022/09/11 06:53:54;;;;;;;4.00;3.00;;;;;;;14.96;72.12;98152.44;104995;1268;61345;-25
2022/09/11 06:56:21;;;;;;;4.10;2.90;;;;;;;15.55;69.29;98147.84;104765;1268;75497;-25
2022/09/11 06:58:49;;;;;;;5.00;3.30;;;;;;;15.71;67.91;98150.41;105029;1268;75951;-24
2022/09/11 07:01:18;;;;;;;3.10;2.60;;;;;;;15.46;68.34;98152.09;104942;1268;74355;-25
2022/09/11 07:03:49;;;;;;;5.60;3.20;;;;;;;15.31;69.50;98148.56;104768;1269;61144;-25
2022/09/11 07:06:19;;;;;;;6.50;3.50;;;;;;;15.38;69.65;98153.28;104772;1270;60923;-25
2022/09/11 07:08:55;;;;;;;4.50;3.20;;;;;;;15.33;68.80;98152.15;104671;1271;74983;-25
2022/09/11 07:11:23;;;;;;;2.30;2.10;;;;;;;15.21;68.63;98155.42;104820;1271;76115;-25
2022/09/11 07:13:51;;;;;;;4.00;2.70;;;;;;;14.70;70.03;98154.37;105043;1268;74408;-25
2022/09/11 07:16:18;;;;;;;3.20;2.00;;;;;;;14.75;70.52;98154.71;104863;1271;61018;-25
2022/09/11 07:18:50;;;;;;;2.40;2.10;;;;;;;15.28;68.92;98154.29;104868;1271;62304;-24
2022/09/11 07:21:21;;;;;;;5.10;2.20;;;;;;;15.78;67.23;98158.30;104952;1271;74487;-24
2022/09/11 07:23:55;;;;;;;2.80;2.40;;;;;;;15.96;66.84;98160.27;104700;1274;76012;-25
2022/09/11 07:26:25;;;;;;;3.20;2.30;;;;;;;15.66;68.34;98160.43;104835;1268;74393;-24
2022/09/11 07:28:57;;;;;;;3.30;2.30;;;;;;;15.62;67.96;98157.30;104852;1268;62052;-25
2022/09/11 07:31:27;;;;;;;4.50;2.50;;;;;;;15.67;68.50;98154.88;104798;1268;61175;-24
2022/09/11 07:33:55;;;;;;;3.30;2.70;;;;;;;15.52;68.36;98153.75;104701;1272;74334;-25
2022/09/11 07:36:29;;;;;;;4.30;2.80;;;;;;;15.36;68.15;98153.04;104784;1268;74976;-24
2022/09/11 07:38:56;;;;;;;3.30;2.00;;;;;;;15.19;68.43;98147.84;104871;1271;74303;-24
2022/09/11 07:41:30;;;;;;;2.40;2.20;;;;;;;14.97;68.76;98147.66;104843;1271;61994;-24
2022/09/11 07:43:59;;;;;;;3.00;2.20;;;;;;;15.13;70.06;98146.87;104951;1271;61133;-25
2022/09/11 07:46:28;;;;;;;2.30;2.00;;;;;;;15.37;68.70;98137.71;104943;1268;75233;-24
2022/09/11 07:48:58;;;;;;;2.80;1.50;;;;;;;15.94;67.87;98139.54;104902;1268;75943;-24
2022/09/11 07:51:25;;;;;;;2.70;2.10;;;;;;;16.35;65.97;98135.69;104969;1268;74322;-24
2022/09/11 07:53:55;;;;;;;2.60;1.90;;;;;;;16.46;64.96;98135.12;105096;1268;63591;-25
2022/09/11 07:56:23;;;;;;;2.20;1.60;;;;;;;16.22;65.33;98140.11;104943;1268;61194;-24
2022/09/11 07:58:51;;;;;;;2.70;2.00;;;;;;;16.14;65.69;98133.47;104861;1271;74395;-24
2022/09/11 08:01:20;;;;;;;2.90;1.80;;;;;;;15.98;65.98;98133.27;105107;1271;75928;-24
2022/09/11 08:03:48;;;;;;;2.50;2.20;;;;;;;15.92;67.12;98128.46;104866;1268;73767;-25
2022/09/11 08:06:16;;;;;;;2.80;2.30;;;;;;;15.84;67.18;98125.27;104866;1271;61151;-24
2022/09/11 08:08:53;;;;;;;6.20;2.40;;;;;;;15.73;68.17;98125.13;104967;1268;61866;-24
2022/09/11 08:11:21;;;;;;;3.30;2.60;;;;;;;15.84;66.79;98126.46;104660;1271;75345;-24
2022/09/11 08:13:50;;;;;;;5.40;2.00;;;;;;;15.97;68.03;98127.44;104938;1271;75959;-24
2022/09/11 08:16:19;;;;;;;3.80;2.20;;;;;;;16.20;67.23;98122.06;104768;1272;73793;-24
2022/09/11 08:18:47;;;;;;;2.90;1.80;;;;;;;16.17;67.91;98126.77;104808;1268;61061;-24
2022/09/11 08:21:14;;;;;;;1.70;1.50;;;;;;;15.68;67.48;98128.85;104824;1268;61348;-24
2022/09/11 08:23:42;;;;;;;3.30;2.30;;;;;;;15.58;68.31;98128.30;104819;1271;75561;-24
2022/09/11 08:26:15;;;;;;;2.00;1.60;;;;;;;15.51;69.10;98131.05;104697;1271;74834;-25
2022/09/11 08:28:42;;;;;;;2.80;2.20;;;;;;;15.73;68.25;98131.58;104662;1268;74299;-25
2022/09/11 08:31:11;;;;;;;3.40;2.80;;;;;;;15.86;68.04;98127.98;104998;1268;61964;-24
2022/09/11 08:33:39;;;;;;;3.60;2.30;;;;;;;15.73;68.78;98128.79;104776;1270;61083;-24
2022/09/11 08:36:08;;;;;;;3.80;2.50;;;;;;;15.82;68.90;98131.38;104963;1268;75587;-25
2022/09/11 08:38:37;;;;;;;3.20;2.50;;;;;;;15.81;68.98;98132.58;104835;1268;76423;-25
2022/09/11 08:41:30;;;;;;;5.40;3.50;;;;;;;15.57;70.11;98133.86;104923;1268;74204;-24
2022/09/11 08:44:00;;;;;;;3.20;2.70;;;;;;;15.36;71.36;98133.70;104854;1271;61178;-24
2022/09/11 08:46:34;;;;;;;2.80;1.80;;;;;;;15.49;71.54;98135.60;104798;1272;61890;-23
2022/09/11 08:49:23;;;;;;;3.50;2.70;;;;;;;15.98;71.01;98130.10;104746;1271;75621;-24
2022/09/11 08:51:55;;;;;;;3.50;1.80;;;;;;;16.29;69.64;98131.02;104784;1272;76022;-24
2022/09/11 08:54:26;;;;;;;4.00;3.00;;;;;;;16.19;69.62;98132.55;104754;1271;72619;-24
2022/09/11 08:57:01;;;;;;;3.70;2.90;;;;;;;15.72;70.76;98133.63;104817;1272;62820;-23
2022/09/11 08:59:51;;;;;;;6.30;3.20;;;;;;;15.48;71.66;98135.70;104858;1271;61610;-24
2022/09/11 09:02:49;;;;;;;4.60;3.30;;;;;;;15.35;72.59;98139.54;104886;1271;75254;-24
2022/09/11 09:05:26;;;;;;;4.70;3.10;;;;;;;15.24;73.08;98142.15;104833;1268;76443;-24
2022/09/11 09:08:15;;;;;;;4.40;3.40;;;;;;;15.76;71.51;98142.81;104944;1271;74517;-26
2022/09/11 09:11:29;;;;;;;5.20;3.00;;;;;;;16.07;70.46;98141.09;105010;1271;61090;-24
2022/09/11 09:14:05;;;;;;;5.20;4.00;;;;;;;15.88;71.02;98143.70;104957;1271;61130;-25
2022/09/11 09:16:54;;;;;;;5.30;3.60;;;;;;;15.64;71.85;98145.45;105105;1268;74567;-24
2022/09/11 09:19:26;;;;;;;4.70;3.90;;;;;;;15.43;72.81;98146.47;104940;1268;75981;-24
2022/09/11 09:22:03;;;;;;;3.50;2.50;;;;;;;15.40;73.72;98148.88;104965;1268;74452;-26
2022/09/11 09:24:35;;;;;;;3.80;3.00;;;;;;;15.83;72.83;98144.14;104754;1268;62586;-25
2022/09/11 09:27:03;;;;;;;4.20;2.70;;;;;;;15.76;72.05;98146.32;104801;1268;61984;-24
2022/09/11 09:29:35;;;;;;;5.60;3.40;;;;;;;15.54;73.17;98149.68;105032;1268;75555;-25
2022/09/11 09:32:05;;;;;;;4.40;3.30;;;;;;;15.33;73.40;98146.93;104974;1269;76129;-25
2022/09/11 09:34:34;;;;;;;4.20;2.90;;;;;;;15.24;73.98;98145.66;105129;1271;73876;-25
2022/09/11 09:37:09;;;;;;;3.40;2.60;;;;;;;15.27;74.22;98147.77;104869;1269;61556;-25
2022/09/11 09:39:36;;;;;;;3.50;2.80;;;;;;;15.74;73.74;98145.63;104609;1268;61054;-24
2022/09/11 09:42:29;;;;;;;5.00;2.80;;;;;;;15.95;72.25;98148.29;104950;1269;75517;-24
2022/09/11 09:45:31;;;;;;;3.80;3.10;;;;;;;16.12;72.34;98152.55;105057;1271;75784;-25
2022/09/11 09:47:59;;;;;;;4.10;3.40;;;;;;;15.93;72.17;98151.33;105165;1269;73756;-25
2022/09/11 09:50:32;;;;;;;4.80;3.10;;;;;;;15.80;73.16;98148.60;104983;1268;61111;-24
2022/09/11 09:53:05;;;;;;;3.00;2.30;;;;;;;15.72;72.98;98150.91;104830;1268;61958;-24
2022/09/11 09:55:34;;;;;;;3.30;2.70;;;;;;;16.18;72.60;98148.17;105016;1268;74925;-24
2022/09/11 09:58:01;;;;;;;5.20;3.30;;;;;;;16.38;71.68;98144.32;104829;1268;76109;-24
2022/09/11 10:00:31;;;;;;;3.60;3.20;;;;;;;16.45;71.99;98144.85;104752;1271;74394;-23
2022/09/11 10:02:59;;;;;;;4.20;3.20;;;;;;;16.53;72.02;98149.70;104960;1268;62537;-23
2022/09/11 10:05:26;;;;;;;6.60;3.60;;;;;;;16.52;71.49;98146.83;105002;1268;61181;-24
2022/09/11 10:08:01;;;;;;;4.90;3.70;;;;;;;16.35;71.69;98145.84;105236;1268;75303;-24
2022/09/11 10:10:35;;;;;;;2.90;2.40;;;;;;;16.38;72.19;98144.98;104836;1268;74781;-24
2022/09/11 10:13:04;;;;;;;3.70;2.60;;;;;;;17.10;71.12;98133.88;104789;1272;74300;-24
2022/09/11 10:15:47;;;;;;;4.90;3.20;;;;;;;17.77;68.30;98131.95;104934;1271;62105;-24
2022/09/11 10:18:21;;;;;;;4.90;3.80;;;;;;;17.50;67.44;98129.53;104842;1271;61095;-24
2022/09/11 10:20:48;;;;;;;3.90;3.00;;;;;;;17.19;67.98;98131.23;104761;1272;75399;-24
2022/09/11 10:23:24;;;;;;;4.10;3.30;;;;;;;16.98;68.63;98132.46;104973;1268;75780;-24
2022/09/11 10:25:51;;;;;;;5.90;3.90;;;;;;;16.81;69.29;98130.14;104816;1268;73727;-24
2022/09/11 10:28:27;;;;;;;5.60;4.10;;;;;;;16.80;69.68;98129.20;104753;1271;61118;-24
2022/09/11 10:30:58;;;;;;;2.90;2.20;;;;;;;16.81;70.76;98134.45;104916;1271;61898;-24
2022/09/11 10:33:36;;;;;;;3.80;2.80;;;;;;;16.84;69.92;98130.69;104797;1271;75825;-24
2022/09/11 10:36:05;;;;;;;4.60;3.60;;;;;;;17.18;68.87;98127.16;105004;1269;75943;-24
2022/09/11 10:38:34;;;;;;;4.20;3.30;;;;;;;16.98;69.56;98130.71;105021;1269;73177;-25
2022/09/11 10:41:17;;;;;;;4.20;3.70;;;;;;;17.04;68.61;98134.21;104942;1270;61057;-25
2022/09/11 10:43:54;;;;;;;4.60;4.00;;;;;;;17.08;69.14;98133.48;105024;1271;62165;-26
2022/09/11 10:46:24;;;;;;;4.80;4.00;;;;;;;16.92;70.08;98132.14;104960;1271;75298;-25
2022/09/11 10:49:01;;;;;;;4.40;3.60;;;;;;;17.09;69.66;98130.98;104808;1271;75930;-26
2022/09/11 10:51:30;;;;;;;3.90;2.80;;;;;;;17.23;69.12;98124.54;105263;1271;74208;-25
2022/09/11 10:54:15;;;;;;;3.90;3.20;;;;;;;17.71;68.05;98123.17;105274;1269;62024;-26
2022/09/11 10:57:27;;;;;;;3.70;3.00;;;;;;;18.05;66.65;98122.21;105430;1268;61595;-25
2022/09/11 11:00:07;;;;;;;4.30;3.40;;;;;;;17.90;66.44;98120.58;105215;1268;74560;-25
2022/09/11 11:02:36;;;;;;;4.20;3.70;;;;;;;17.76;67.17;98119.20;105161;1268;75737;-24
2022/09/11 11:05:18;;;;;;;4.20;3.80;;;;;;;17.57;67.86;98112.51;104845;1268;74405;-24
2022/09/11 11:08:01;;;;;;;4.60;3.10;;;;;;;17.62;67.83;98109.61;104982;1268;61357;-25
2022/09/11 11:10:50;;;;;;;6.00;3.10;;;;;;;17.62;67.67;98110.12;105095;1268;61785;-25
2022/09/11 11:13:30;;;;;;;3.50;2.40;;;;;;;17.99;67.57;98102.66;104796;1271;76214;-24
2022/09/11 11:16:10;;;;;;;3.40;2.80;;;;;;;19.42;65.73;98101.94;104950;1271;75818;-26
2022/09/11 11:18:57;;;;;;;3.80;2.80;;;;;;;20.83;60.76;98097.67;104733;1270;74164;-25
2022/09/11 11:21:38;;;;;;;3.60;3.10;;;;;;;20.97;58.78;98089.73;104886;1271;62263;-25
2022/09/11 11:24:37;;;;;;;2.80;2.50;;;;;;;20.75;59.73;98087.36;104808;1271;61393;-25
2022/09/11 11:27:26;;;;;;;3.10;2.60;;;;;;;20.44;59.04;98085.06;105181;1271;75491;-25
2022/09/11 11:29:53;;;;;;;3.10;2.60;;;;;;;20.20;57.28;98079.48;104850;1271;76016;-25
2022/09/11 11:32:38;;;;;;;2.40;2.20;;;;;;;20.13;58.12;98080.66;104789;1271;74738;-24
2022/09/11 11:35:22;;;;;;;3.60;2.30;;;;;;;20.75;57.90;98077.98;104918;1271;62032;-25
2022/09/11 11:37:51;;;;;;;2.60;2.10;;;;;;;20.64;56.91;98077.90;105001;1271;61892;-26
2022/09/11 11:40:34;;;;;;;2.40;2.20;;;;;;;20.63;57.83;98073.59;104781;1271;75349;-23
2022/09/11 11:43:06;;;;;;;3.60;2.20;;;;;;;20.59;57.51;98070.80;104922;1271;76537;-24
2022/09/11 11:45:44;;;;;;;2.70;2.30;;;;;;;20.91;58.61;98069.31;105367;1268;74234;-24
2022/09/11 11:48:34;;;;;;;2.20;2.00;;;;;;;20.90;57.58;98063.33;105181;1268;61321;-24
2022/09/11 11:51:03;;;;;;;3.30;2.20;;;;;;;20.84;57.62;98061.08;105266;1268;61087;-23